Lupton, Michigan
Current Conditions -  °F | °C
As of 5:14 AM on Friday 24 Oct 2014 (Local Time) from KOSC Reporting Station
Broken Clouds Broken Clouds  
Wind Chill:   Ceiling: 11000
Heat Index:   Visibility: 7mi
Dew Point:   Wind: 0mph
Humidity: 95%   Direction: NA
Pressure: 30.04"   Gusts: NA
Location:  44.43°N, 84.03°W
Report Text: KOSC 240914Z AUTO 00000KT 7SM SCT090 BKN110 03/02 A3004 RMK AO2 T00350028
Loading
Personal Weather Stations






























Interactive Weather Map
Tropical Storm Tracking
New forecast layout! Learn more

10-Day Weather Forecast

Advertisements
Track Severe Weather on mobile